Linda Fortune — 3FOW6 — position and weather

sailwx.info

Track history (hours):
 
Tides and Currents Weather Stations Pressure Air Temp Water Temp Dewpoint Dewpoint Depression Visibility Wind Speed Wind Dir Waves Ship Positions

Linda Fortune

Last reported at 2017-Aug-20 04:12 UTC. Time now 2017-Aug-21 14:15 UTC.
Position N 34°59' E 139°40'.

Length 281 m; draft 11 m.

Type: Cargo ship. MMSI: 352793000.

Date/timePositionNaut miles runAvg speedWind from/ knotsBaromVisibWave heightAir tempDewpointWater temp
2017-Aug-20 04:12N 34°59' E 139°40'211.1
2017-Aug-20 03:59N 35°01' E 139°41'910.8
2017-Aug-20 03:08N 35°10' E 139°45'1 9.9
2017-Aug-20 03:00N 35°11' E 139°46'510.1
2017-Aug-20 02:30N 35°16' E 139°46'613.0
2017-Aug-20 02:00N 35°22' E 139°42'612.5
2017-Aug-20 01:30N 35°27' E 139°47'713.2
2017-Aug-20 01:00N 35°31' E 139°53'612.8
2017-Aug-20 00:30N 35°34' E 140°00'4 8.7
2017-Aug-20 00:00N 35°36' E 140°05'1 0.4
2017-Aug-19 21:14N 35°35' E 140°06'0 0.0
2017-Aug-19 20:56N 35°35' E 140°06'0 0.0
2017-Aug-19 20:14N 35°35' E 140°06'0 0.1
2017-Aug-19 19:50N 35°35' E 140°06'0 0.1
2017-Aug-19 19:26N 35°35' E 140°06'0 0.0
2017-Aug-19 18:08N 35°35' E 140°06'0 0.0
2017-Aug-19 17:56N 35°35' E 140°06'0 0.1
2017-Aug-19 17:20N 35°35' E 140°06'0 0.0
2017-Aug-19 16:56N 35°35' E 140°06'0 0.0
2017-Aug-19 09:38N 35°35' E 140°06'0 0.0
2017-Aug-19 07:14N 35°35' E 140°06'0 0.0
2017-Aug-19 06:56N 35°35' E 140°06'0 0.0
2017-Aug-19 06:29N 35°35' E 140°06'0 0.1
2017-Aug-19 05:56N 35°35' E 140°06'0 0.0
2017-Aug-19 05:20N 35°35' E 140°06'0 0.1
2017-Aug-19 04:32N 35°35' E 140°06'0 0.0
2017-Aug-19 04:29N 35°35' E 140°06'0 0.0
2017-Aug-19 03:56N 35°35' E 140°06'0 0.0
2017-Aug-19 03:26N 35°35' E 140°06'0 0.0
2017-Aug-19 02:56N 35°35' E 140°06'0 0.0
2017-Aug-19 02:29N 35°35' E 140°06'0 0.0
2017-Aug-19 01:14N 35°35' E 140°06'0 0.0
2017-Aug-19 00:56N 35°35' E 140°06'0 0.1
2017-Aug-19 00:14N 35°35' E 140°06'0 0.0
2017-Aug-18 08:03N 35°35' E 140°06'0 0.4
2017-Aug-18 07:59N 35°35' E 140°06'2 2.8
2017-Aug-18 07:11N 35°35' E 140°04'1 8.0
2017-Aug-18 07:01N 35°34' E 140°02'4 8.7
2017-Aug-18 06:30N 35°32' E 139°58'1 2.1
2017-Aug-18 06:00N 35°32' E 139°56'0 0.1
2017-Aug-18 05:30N 35°32' E 139°56'0 0.0
2017-Aug-18 05:00N 35°32' E 139°56'0 0.0
2017-Aug-18 04:30N 35°32' E 139°56'0 0.0
2017-Aug-18 03:54N 35°32' E 139°56'0 0.0
2017-Aug-18 03:30N 35°32' E 139°56'0 0.0
2017-Aug-18 03:00N 35°32' E 139°56'0 0.1
2017-Aug-18 02:30N 35°32' E 139°56'0 0.1
2017-Aug-18 02:00N 35°32' E 139°56'0 0.1
2017-Aug-18 01:30N 35°32' E 139°56'0 0.0
2017-Aug-18 00:57N 35°32' E 139°56'0 0.1
2017-Aug-18 00:27N 35°32' E 139°56'0 0.1
2017-Aug-18 00:00N 35°32' E 139°56'0 0.1
2017-Aug-17 22:48N 35°32' E 139°56'0 0.0
2017-Aug-17 22:30N 35°32' E 139°56'0 0.0
2017-Aug-17 22:00N 35°32' E 139°56'0 0.0
2017-Aug-17 21:21N 35°32' E 139°56'0 0.0
2017-Aug-17 21:00N 35°32' E 139°56'0 0.0
2017-Aug-17 20:30N 35°32' E 139°56'0 0.0
2017-Aug-17 20:00N 35°32' E 139°56'0 0.0
2017-Aug-17 19:30N 35°32' E 139°56'0 0.0
2017-Aug-17 19:00N 35°32' E 139°56'0 0.0
2017-Aug-17 18:30N 35°32' E 139°56'0 0.0
2017-Aug-17 18:00N 35°32' E 139°56'0 0.0
2017-Aug-17 17:24N 35°32' E 139°56'0 0.0
2017-Aug-17 17:00N 35°32' E 139°56'0 0.0
2017-Aug-17 16:30N 35°32' E 139°56'0 0.0
2017-Aug-17 15:54N 35°32' E 139°56'0 0.0
2017-Aug-17 15:27N 35°32' E 139°56'0 0.0
2017-Aug-17 15:00N 35°32' E 139°56'0 0.0
2017-Aug-17 14:27N 35°32' E 139°56'0 0.0
2017-Aug-17 13:57N 35°32' E 139°56'0 0.1
2017-Aug-17 13:30N 35°32' E 139°56'0 0.0
2017-Aug-17 13:00N 35°32' E 139°56'0 0.0
2017-Aug-17 12:24N 35°32' E 139°56'0 0.0
2017-Aug-17 12:00N 35°32' E 139°56'0 0.0
2017-Aug-17 11:30N 35°32' E 139°56'0 0.0
2017-Aug-17 11:00N 35°32' E 139°56'0 0.0
2017-Aug-17 10:30N 35°32' E 139°56'0 0.0
2017-Aug-17 10:00N 35°32' E 139°56'0 0.0
2017-Aug-17 09:30N 35°32' E 139°56'0 0.0
2017-Aug-17 09:00N 35°32' E 139°56'0 0.1
2017-Aug-17 08:27N 35°32' E 139°56'0 0.2
2017-Aug-17 08:00N 35°32' E 139°56'3 5.3
2017-Aug-17 07:30N 35°30' E 139°54'5 9.8
2017-Aug-17 07:00N 35°27' E 139°50'612.3
2017-Aug-17 06:30N 35°22' E 139°45'510.7
2017-Aug-17 06:00N 35°17' E 139°46'510.9
2017-Aug-17 05:30N 35°11' E 139°47'3 6.9
2017-Aug-17 05:00N 35°08' E 139°47'3 6.5
2017-Aug-17 04:30N 35°05' E 139°44'4 8.4
2017-Aug-17 04:00N 35°03' E 139°40'4 9.0
2017-Aug-17 03:30N 35°01' E 139°35'510.0
2017-Aug-17 03:00N 34°58' E 139°30'5 9.8
2017-Aug-17 02:29N 34°55' E 139°25'  
Track history (hours):
 
Tides and Currents Weather Stations Pressure Air Temp Water Temp Dewpoint Dewpoint Depression Visibility Wind Speed Wind Dir Waves Ship Positions

Linda Fortune

Last reported at 2017-Aug-20 04:12 UTC. Time now 2017-Aug-21 14:15 UTC.
Position N 34°59' E 139°40'.

Length 281 m; draft 11 m.

Type: Cargo ship. MMSI: 352793000.

Date/timePositionNaut miles runAvg speedWind from/ knotsBaromVisibWave heightAir tempDewpointWater temp
2017-Aug-20 04:12N 34°59' E 139°40'211.1
2017-Aug-20 03:59N 35°01' E 139°41'910.8
2017-Aug-20 03:08N 35°10' E 139°45'1 9.9
2017-Aug-20 03:00N 35°11' E 139°46'510.1
2017-Aug-20 02:30N 35°16' E 139°46'613.0
2017-Aug-20 02:00N 35°22' E 139°42'612.5
2017-Aug-20 01:30N 35°27' E 139°47'713.2
2017-Aug-20 01:00N 35°31' E 139°53'612.8
2017-Aug-20 00:30N 35°34' E 140°00'4 8.7
2017-Aug-20 00:00N 35°36' E 140°05'1 0.4
2017-Aug-19 21:14N 35°35' E 140°06'0 0.0
2017-Aug-19 20:56N 35°35' E 140°06'0 0.0
2017-Aug-19 20:14N 35°35' E 140°06'0 0.1
2017-Aug-19 19:50N 35°35' E 140°06'0 0.1
2017-Aug-19 19:26N 35°35' E 140°06'0 0.0
2017-Aug-19 18:08N 35°35' E 140°06'0 0.0
2017-Aug-19 17:56N 35°35' E 140°06'0 0.1
2017-Aug-19 17:20N 35°35' E 140°06'0 0.0
2017-Aug-19 16:56N 35°35' E 140°06'0 0.0
2017-Aug-19 09:38N 35°35' E 140°06'0 0.0
2017-Aug-19 07:14N 35°35' E 140°06'0 0.0
2017-Aug-19 06:56N 35°35' E 140°06'0 0.0
2017-Aug-19 06:29N 35°35' E 140°06'0 0.1
2017-Aug-19 05:56N 35°35' E 140°06'0 0.0
2017-Aug-19 05:20N 35°35' E 140°06'0 0.1
2017-Aug-19 04:32N 35°35' E 140°06'0 0.0
2017-Aug-19 04:29N 35°35' E 140°06'0 0.0
2017-Aug-19 03:56N 35°35' E 140°06'0 0.0
2017-Aug-19 03:26N 35°35' E 140°06'0 0.0
2017-Aug-19 02:56N 35°35' E 140°06'0 0.0
2017-Aug-19 02:29N 35°35' E 140°06'0 0.0
2017-Aug-19 01:14N 35°35' E 140°06'0 0.0
2017-Aug-19 00:56N 35°35' E 140°06'0 0.1
2017-Aug-19 00:14N 35°35' E 140°06'0 0.0
2017-Aug-18 08:03N 35°35' E 140°06'0 0.4
2017-Aug-18 07:59N 35°35' E 140°06'2 2.8
2017-Aug-18 07:11N 35°35' E 140°04'1 8.0
2017-Aug-18 07:01N 35°34' E 140°02'4 8.7
2017-Aug-18 06:30N 35°32' E 139°58'1 2.1
2017-Aug-18 06:00N 35°32' E 139°56'0 0.1
2017-Aug-18 05:30N 35°32' E 139°56'0 0.0
2017-Aug-18 05:00N 35°32' E 139°56'0 0.0
2017-Aug-18 04:30N 35°32' E 139°56'0 0.0
2017-Aug-18 03:54N 35°32' E 139°56'0 0.0
2017-Aug-18 03:30N 35°32' E 139°56'0 0.0
2017-Aug-18 03:00N 35°32' E 139°56'0 0.1
2017-Aug-18 02:30N 35°32' E 139°56'0 0.1
2017-Aug-18 02:00N 35°32' E 139°56'0 0.1
2017-Aug-18 01:30N 35°32' E 139°56'0 0.0
2017-Aug-18 00:57N 35°32' E 139°56'0 0.1
2017-Aug-18 00:27N 35°32' E 139°56'0 0.1
2017-Aug-18 00:00N 35°32' E 139°56'0 0.1
2017-Aug-17 22:48N 35°32' E 139°56'0 0.0
2017-Aug-17 22:30N 35°32' E 139°56'0 0.0
2017-Aug-17 22:00N 35°32' E 139°56'0 0.0
2017-Aug-17 21:21N 35°32' E 139°56'0 0.0
2017-Aug-17 21:00N 35°32' E 139°56'0 0.0
2017-Aug-17 20:30N 35°32' E 139°56'0 0.0
2017-Aug-17 20:00N 35°32' E 139°56'0 0.0
2017-Aug-17 19:30N 35°32' E 139°56'0 0.0
2017-Aug-17 19:00N 35°32' E 139°56'0 0.0
2017-Aug-17 18:30N 35°32' E 139°56'0 0.0
2017-Aug-17 18:00N 35°32' E 139°56'0 0.0
2017-Aug-17 17:24N 35°32' E 139°56'0 0.0
2017-Aug-17 17:00N 35°32' E 139°56'0 0.0
2017-Aug-17 16:30N 35°32' E 139°56'0 0.0
2017-Aug-17 15:54N 35°32' E 139°56'0 0.0
2017-Aug-17 15:27N 35°32' E 139°56'0 0.0
2017-Aug-17 15:00N 35°32' E 139°56'0 0.0
2017-Aug-17 14:27N 35°32' E 139°56'0 0.0
2017-Aug-17 13:57N 35°32' E 139°56'0 0.1
2017-Aug-17 13:30N 35°32' E 139°56'0 0.0
2017-Aug-17 13:00N 35°32' E 139°56'0 0.0
2017-Aug-17 12:24N 35°32' E 139°56'0 0.0
2017-Aug-17 12:00N 35°32' E 139°56'0 0.0
2017-Aug-17 11:30N 35°32' E 139°56'0 0.0
2017-Aug-17 11:00N 35°32' E 139°56'0 0.0
2017-Aug-17 10:30N 35°32' E 139°56'0 0.0
2017-Aug-17 10:00N 35°32' E 139°56'0 0.0
2017-Aug-17 09:30N 35°32' E 139°56'0 0.0
2017-Aug-17 09:00N 35°32' E 139°56'0 0.1
2017-Aug-17 08:27N 35°32' E 139°56'0 0.2
2017-Aug-17 08:00N 35°32' E 139°56'3 5.3
2017-Aug-17 07:30N 35°30' E 139°54'5 9.8
2017-Aug-17 07:00N 35°27' E 139°50'612.3
2017-Aug-17 06:30N 35°22' E 139°45'510.7
2017-Aug-17 06:00N 35°17' E 139°46'510.9
2017-Aug-17 05:30N 35°11' E 139°47'3 6.9
2017-Aug-17 05:00N 35°08' E 139°47'3 6.5
2017-Aug-17 04:30N 35°05' E 139°44'4 8.4
2017-Aug-17 04:00N 35°03' E 139°40'4 9.0
2017-Aug-17 03:30N 35°01' E 139°35'510.0
2017-Aug-17 03:00N 34°58' E 139°30'5 9.8
2017-Aug-17 02:29N 34°55' E 139°25'  

Dump ship's entire track history